sensor_id;sensor_type;location;lat;lon;timestamp;P1;durP1;ratioP1;P2;durP2;ratioP2
72408;SDS011;60402;48.082;11.628;2023-06-19T00:02:33;12.05;;;8.00;;
72408;SDS011;60402;48.082;11.628;2023-06-19T00:05:18;12.80;;;7.60;;
72408;SDS011;60402;48.082;11.628;2023-06-19T00:08:04;11.13;;;7.68;;
72408;SDS011;60402;48.082;11.628;2023-06-19T00:10:51;12.77;;;8.07;;
72408;SDS011;60402;48.082;11.628;2023-06-19T00:13:37;9.80;;;6.47;;
72408;SDS011;60402;48.082;11.628;2023-06-19T00:16:23;11.60;;;7.45;;
72408;SDS011;60402;48.082;11.628;2023-06-19T00:19:10;12.95;;;7.63;;
72408;SDS011;60402;48.082;11.628;2023-06-19T00:21:57;11.13;;;6.93;;
72408;SDS011;60402;48.082;11.628;2023-06-19T00:24:42;10.98;;;7.55;;
72408;SDS011;60402;48.082;11.628;2023-06-19T00:27:28;10.95;;;6.85;;
72408;SDS011;60402;48.082;11.628;2023-06-19T00:30:14;11.45;;;7.03;;
72408;SDS011;60402;48.082;11.628;2023-06-19T00:33:00;12.85;;;7.32;;
72408;SDS011;60402;48.082;11.628;2023-06-19T00:35:49;12.15;;;7.50;;
72408;SDS011;60402;48.082;11.628;2023-06-19T00:38:35;12.23;;;7.03;;
72408;SDS011;60402;48.082;11.628;2023-06-19T00:41:21;12.00;;;7.65;;
72408;SDS011;60402;48.082;11.628;2023-06-19T00:44:08;11.88;;;7.35;;
72408;SDS011;60402;48.082;11.628;2023-06-19T00:46:57;11.88;;;7.53;;
72408;SDS011;60402;48.082;11.628;2023-06-19T00:49:44;10.95;;;7.30;;
72408;SDS011;60402;48.082;11.628;2023-06-19T00:52:29;11.35;;;7.32;;
72408;SDS011;60402;48.082;11.628;2023-06-19T00:55:15;12.60;;;7.00;;
72408;SDS011;60402;48.082;11.628;2023-06-19T00:58:02;12.00;;;7.35;;
72408;SDS011;60402;48.082;11.628;2023-06-19T01:00:48;10.82;;;6.70;;
72408;SDS011;60402;48.082;11.628;2023-06-19T01:03:34;10.73;;;7.07;;
72408;SDS011;60402;48.082;11.628;2023-06-19T01:06:22;12.77;;;7.28;;
72408;SDS011;60402;48.082;11.628;2023-06-19T01:09:14;11.27;;;7.10;;
72408;SDS011;60402;48.082;11.628;2023-06-19T01:12:06;11.10;;;6.78;;
72408;SDS011;60402;48.082;11.628;2023-06-19T01:14:59;12.40;;;7.15;;
72408;SDS011;60402;48.082;11.628;2023-06-19T01:17:48;10.57;;;7.03;;
72408;SDS011;60402;48.082;11.628;2023-06-19T01:20:34;11.43;;;7.50;;
72408;SDS011;60402;48.082;11.628;2023-06-19T01:23:20;11.15;;;7.38;;
72408;SDS011;60402;48.082;11.628;2023-06-19T01:26:06;10.38;;;6.47;;
72408;SDS011;60402;48.082;11.628;2023-06-19T01:28:53;10.65;;;6.72;;
72408;SDS011;60402;48.082;11.628;2023-06-19T01:31:49;10.18;;;6.63;;
72408;SDS011;60402;48.082;11.628;2023-06-19T01:34:45;10.13;;;6.57;;
72408;SDS011;60402;48.082;11.628;2023-06-19T01:37:32;12.32;;;7.00;;
72408;SDS011;60402;48.082;11.628;2023-06-19T01:40:19;10.45;;;7.05;;
72408;SDS011;60402;48.082;11.628;2023-06-19T01:43:09;11.75;;;7.43;;
72408;SDS011;60402;48.082;11.628;2023-06-19T01:45:56;12.07;;;6.53;;
72408;SDS011;60402;48.082;11.628;2023-06-19T01:48:42;11.02;;;6.43;;
72408;SDS011;60402;48.082;11.628;2023-06-19T01:51:27;11.20;;;7.25;;
72408;SDS011;60402;48.082;11.628;2023-06-19T01:54:13;11.80;;;6.93;;
72408;SDS011;60402;48.082;11.628;2023-06-19T01:56:59;12.73;;;6.97;;
72408;SDS011;60402;48.082;11.628;2023-06-19T01:59:44;10.50;;;7.00;;
72408;SDS011;60402;48.082;11.628;2023-06-19T02:02:30;11.82;;;6.97;;
72408;SDS011;60402;48.082;11.628;2023-06-19T02:05:16;10.77;;;6.30;;
72408;SDS011;60402;48.082;11.628;2023-06-19T02:08:01;12.05;;;6.95;;
72408;SDS011;60402;48.082;11.628;2023-06-19T02:10:47;10.40;;;6.43;;
72408;SDS011;60402;48.082;11.628;2023-06-19T02:13:33;11.23;;;7.25;;
72408;SDS011;60402;48.082;11.628;2023-06-19T02:16:18;10.80;;;6.70;;
72408;SDS011;60402;48.082;11.628;2023-06-19T02:19:04;11.25;;;7.45;;
72408;SDS011;60402;48.082;11.628;2023-06-19T02:21:50;10.27;;;6.68;;
72408;SDS011;60402;48.082;11.628;2023-06-19T02:24:36;10.52;;;6.32;;
72408;SDS011;60402;48.082;11.628;2023-06-19T02:27:22;10.38;;;6.95;;
72408;SDS011;60402;48.082;11.628;2023-06-19T02:30:08;12.70;;;6.90;;
72408;SDS011;60402;48.082;11.628;2023-06-19T02:32:54;11.25;;;7.43;;
72408;SDS011;60402;48.082;11.628;2023-06-19T02:35:39;10.20;;;6.63;;
72408;SDS011;60402;48.082;11.628;2023-06-19T02:38:26;12.52;;;6.85;;
72408;SDS011;60402;48.082;11.628;2023-06-19T02:41:15;11.77;;;7.18;;
72408;SDS011;60402;48.082;11.628;2023-06-19T02:44:00;11.38;;;7.07;;
72408;SDS011;60402;48.082;11.628;2023-06-19T02:46:46;10.80;;;6.88;;
72408;SDS011;60402;48.082;11.628;2023-06-19T02:49:32;10.50;;;7.00;;
72408;SDS011;60402;48.082;11.628;2023-06-19T02:52:17;10.63;;;6.70;;
72408;SDS011;60402;48.082;11.628;2023-06-19T02:55:03;11.23;;;7.63;;
72408;SDS011;60402;48.082;11.628;2023-06-19T02:57:49;9.88;;;6.95;;
72408;SDS011;60402;48.082;11.628;2023-06-19T03:00:34;9.98;;;6.88;;
72408;SDS011;60402;48.082;11.628;2023-06-19T03:03:20;9.90;;;7.03;;
72408;SDS011;60402;48.082;11.628;2023-06-19T03:06:06;11.07;;;7.03;;
72408;SDS011;60402;48.082;11.628;2023-06-19T03:08:53;12.73;;;7.70;;
72408;SDS011;60402;48.082;11.628;2023-06-19T03:11:39;11.50;;;7.10;;
72408;SDS011;60402;48.082;11.628;2023-06-19T03:14:25;10.93;;;6.80;;
72408;SDS011;60402;48.082;11.628;2023-06-19T03:17:12;11.38;;;7.40;;
72408;SDS011;60402;48.082;11.628;2023-06-19T03:19:57;12.63;;;7.20;;
72408;SDS011;60402;48.082;11.628;2023-06-19T03:22:43;15.50;;;7.13;;
72408;SDS011;60402;48.082;11.628;2023-06-19T03:25:29;13.68;;;7.32;;
72408;SDS011;60402;48.082;11.628;2023-06-19T03:28:20;10.82;;;7.38;;
72408;SDS011;60402;48.082;11.628;2023-06-19T03:31:06;11.40;;;6.85;;
72408;SDS011;60402;48.082;11.628;2023-06-19T03:33:51;11.55;;;7.10;;
72408;SDS011;60402;48.082;11.628;2023-06-19T03:36:37;11.57;;;6.82;;
72408;SDS011;60402;48.082;11.628;2023-06-19T03:39:24;11.05;;;6.68;;
72408;SDS011;60402;48.082;11.628;2023-06-19T03:42:10;11.00;;;6.63;;
72408;SDS011;60402;48.082;11.628;2023-06-19T03:44:55;11.00;;;6.68;;
72408;SDS011;60402;48.082;11.628;2023-06-19T03:47:41;11.25;;;6.97;;
72408;SDS011;60402;48.082;11.628;2023-06-19T03:50:27;10.50;;;6.68;;
72408;SDS011;60402;48.082;11.628;2023-06-19T03:53:12;10.23;;;6.05;;
72408;SDS011;60402;48.082;11.628;2023-06-19T03:55:58;10.05;;;6.90;;
72408;SDS011;60402;48.082;11.628;2023-06-19T03:58:44;9.70;;;6.40;;
72408;SDS011;60402;48.082;11.628;2023-06-19T04:01:29;11.23;;;6.70;;
72408;SDS011;60402;48.082;11.628;2023-06-19T04:04:15;10.10;;;6.50;;
72408;SDS011;60402;48.082;11.628;2023-06-19T04:07:01;11.75;;;7.00;;
72408;SDS011;60402;48.082;11.628;2023-06-19T04:09:46;10.80;;;6.95;;
72408;SDS011;60402;48.082;11.628;2023-06-19T04:12:32;11.75;;;7.05;;
72408;SDS011;60402;48.082;11.628;2023-06-19T04:15:18;11.80;;;6.95;;
72408;SDS011;60402;48.082;11.628;2023-06-19T04:18:03;11.90;;;6.88;;
72408;SDS011;60402;48.082;11.628;2023-06-19T04:20:49;12.18;;;6.50;;
72408;SDS011;60402;48.082;11.628;2023-06-19T04:23:35;12.57;;;7.03;;
72408;SDS011;60402;48.082;11.628;2023-06-19T04:26:20;11.00;;;6.55;;
72408;SDS011;60402;48.082;11.628;2023-06-19T04:29:06;12.77;;;6.82;;
72408;SDS011;60402;48.082;11.628;2023-06-19T04:31:52;10.95;;;6.60;;
72408;SDS011;60402;48.082;11.628;2023-06-19T04:34:38;10.80;;;7.07;;
72408;SDS011;60402;48.082;11.628;2023-06-19T04:37:24;12.32;;;7.75;;
72408;SDS011;60402;48.082;11.628;2023-06-19T04:40:10;11.45;;;6.57;;
72408;SDS011;60402;48.082;11.628;2023-06-19T04:42:56;10.95;;;6.63;;
72408;SDS011;60402;48.082;11.628;2023-06-19T04:45:42;10.40;;;6.32;;
72408;SDS011;60402;48.082;11.628;2023-06-19T04:48:27;11.48;;;7.47;;
72408;SDS011;60402;48.082;11.628;2023-06-19T04:51:14;11.32;;;6.45;;
72408;SDS011;60402;48.082;11.628;2023-06-19T04:54:00;10.88;;;6.70;;
72408;SDS011;60402;48.082;11.628;2023-06-19T04:56:46;13.40;;;7.43;;
72408;SDS011;60402;48.082;11.628;2023-06-19T04:59:31;11.00;;;6.70;;
72408;SDS011;60402;48.082;11.628;2023-06-19T05:02:17;11.75;;;6.80;;
72408;SDS011;60402;48.082;11.628;2023-06-19T05:05:03;11.73;;;6.88;;
72408;SDS011;60402;48.082;11.628;2023-06-19T05:07:49;10.57;;;6.97;;
72408;SDS011;60402;48.082;11.628;2023-06-19T05:10:34;10.40;;;6.82;;
72408;SDS011;60402;48.082;11.628;2023-06-19T05:13:20;9.50;;;6.13;;
72408;SDS011;60402;48.082;11.628;2023-06-19T05:16:06;12.70;;;7.07;;
72408;SDS011;60402;48.082;11.628;2023-06-19T05:18:51;9.95;;;6.60;;
72408;SDS011;60402;48.082;11.628;2023-06-19T05:21:37;11.65;;;7.13;;
72408;SDS011;60402;48.082;11.628;2023-06-19T05:24:22;10.60;;;6.38;;
72408;SDS011;60402;48.082;11.628;2023-06-19T05:27:08;11.15;;;6.65;;
72408;SDS011;60402;48.082;11.628;2023-06-19T05:29:54;10.35;;;6.90;;
72408;SDS011;60402;48.082;11.628;2023-06-19T05:32:39;9.70;;;6.35;;
72408;SDS011;60402;48.082;11.628;2023-06-19T05:35:25;10.98;;;6.57;;
72408;SDS011;60402;48.082;11.628;2023-06-19T05:38:11;12.82;;;7.05;;
72408;SDS011;60402;48.082;11.628;2023-06-19T05:40:57;10.32;;;6.57;;
72408;SDS011;60402;48.082;11.628;2023-06-19T05:43:43;11.45;;;6.72;;
72408;SDS011;60402;48.082;11.628;2023-06-19T05:46:29;11.15;;;6.45;;
72408;SDS011;60402;48.082;11.628;2023-06-19T05:49:14;10.57;;;6.57;;
72408;SDS011;60402;48.082;11.628;2023-06-19T05:52:00;10.70;;;6.72;;
72408;SDS011;60402;48.082;11.628;2023-06-19T05:54:46;11.57;;;6.97;;
72408;SDS011;60402;48.082;11.628;2023-06-19T05:57:32;11.07;;;6.43;;
72408;SDS011;60402;48.082;11.628;2023-06-19T06:00:18;12.18;;;6.38;;
72408;SDS011;60402;48.082;11.628;2023-06-19T06:03:04;13.35;;;6.95;;
72408;SDS011;60402;48.082;11.628;2023-06-19T06:05:50;10.45;;;6.63;;
72408;SDS011;60402;48.082;11.628;2023-06-19T06:08:36;13.07;;;7.18;;
72408;SDS011;60402;48.082;11.628;2023-06-19T06:11:22;11.27;;;6.45;;
72408;SDS011;60402;48.082;11.628;2023-06-19T06:14:08;11.20;;;6.35;;
72408;SDS011;60402;48.082;11.628;2023-06-19T06:16:53;10.10;;;5.93;;
72408;SDS011;60402;48.082;11.628;2023-06-19T06:19:39;11.00;;;6.95;;
72408;SDS011;60402;48.082;11.628;2023-06-19T06:22:25;11.35;;;6.20;;
72408;SDS011;60402;48.082;11.628;2023-06-19T06:25:10;9.70;;;5.93;;
72408;SDS011;60402;48.082;11.628;2023-06-19T06:27:56;9.70;;;5.90;;
72408;SDS011;60402;48.082;11.628;2023-06-19T06:30:42;10.95;;;6.43;;
72408;SDS011;60402;48.082;11.628;2023-06-19T06:33:27;9.63;;;5.88;;
72408;SDS011;60402;48.082;11.628;2023-06-19T06:36:14;9.98;;;5.78;;
72408;SDS011;60402;48.082;11.628;2023-06-19T06:39:00;11.43;;;6.57;;
72408;SDS011;60402;48.082;11.628;2023-06-19T06:41:46;11.70;;;6.20;;
72408;SDS011;60402;48.082;11.628;2023-06-19T06:44:31;10.18;;;6.05;;
72408;SDS011;60402;48.082;11.628;2023-06-19T06:47:17;9.32;;;5.90;;
72408;SDS011;60402;48.082;11.628;2023-06-19T06:50:03;9.60;;;5.45;;
72408;SDS011;60402;48.082;11.628;2023-06-19T06:52:49;11.88;;;6.07;;
72408;SDS011;60402;48.082;11.628;2023-06-19T06:55:34;11.55;;;6.93;;
72408;SDS011;60402;48.082;11.628;2023-06-19T06:58:20;8.50;;;5.30;;
72408;SDS011;60402;48.082;11.628;2023-06-19T07:01:06;10.00;;;5.75;;
72408;SDS011;60402;48.082;11.628;2023-06-19T07:03:52;11.98;;;5.70;;
72408;SDS011;60402;48.082;11.628;2023-06-19T07:06:37;10.95;;;5.95;;
72408;SDS011;60402;48.082;11.628;2023-06-19T07:09:23;8.73;;;5.43;;
72408;SDS011;60402;48.082;11.628;2023-06-19T07:12:09;9.90;;;5.22;;
72408;SDS011;60402;48.082;11.628;2023-06-19T07:14:55;10.02;;;4.90;;
72408;SDS011;60402;48.082;11.628;2023-06-19T07:17:41;8.88;;;5.50;;
72408;SDS011;60402;48.082;11.628;2023-06-19T07:20:26;7.72;;;5.07;;
72408;SDS011;60402;48.082;11.628;2023-06-19T07:23:12;8.55;;;5.00;;
72408;SDS011;60402;48.082;11.628;2023-06-19T07:25:58;7.75;;;5.18;;
72408;SDS011;60402;48.082;11.628;2023-06-19T07:28:43;8.73;;;4.95;;
72408;SDS011;60402;48.082;11.628;2023-06-19T07:31:29;8.13;;;5.18;;
72408;SDS011;60402;48.082;11.628;2023-06-19T07:34:14;8.85;;;5.10;;
72408;SDS011;60402;48.082;11.628;2023-06-19T07:37:00;8.13;;;5.32;;
72408;SDS011;60402;48.082;11.628;2023-06-19T07:39:46;8.45;;;5.18;;
72408;SDS011;60402;48.082;11.628;2023-06-19T07:42:33;8.45;;;4.63;;
72408;SDS011;60402;48.082;11.628;2023-06-19T07:45:19;8.52;;;5.22;;
72408;SDS011;60402;48.082;11.628;2023-06-19T07:48:04;7.93;;;4.60;;
72408;SDS011;60402;48.082;11.628;2023-06-19T07:50:50;9.27;;;4.30;;
72408;SDS011;60402;48.082;11.628;2023-06-19T07:53:36;8.63;;;4.10;;
72408;SDS011;60402;48.082;11.628;2023-06-19T07:56:21;7.40;;;4.70;;
72408;SDS011;60402;48.082;11.628;2023-06-19T07:59:07;6.97;;;4.20;;
72408;SDS011;60402;48.082;11.628;2023-06-19T08:01:53;7.60;;;4.15;;
72408;SDS011;60402;48.082;11.628;2023-06-19T08:04:38;7.13;;;4.30;;
72408;SDS011;60402;48.082;11.628;2023-06-19T08:07:24;7.18;;;4.13;;
72408;SDS011;60402;48.082;11.628;2023-06-19T08:10:09;7.03;;;3.88;;
72408;SDS011;60402;48.082;11.628;2023-06-19T08:12:55;6.65;;;3.90;;
72408;SDS011;60402;48.082;11.628;2023-06-19T08:15:41;6.95;;;3.67;;
72408;SDS011;60402;48.082;11.628;2023-06-19T08:18:27;6.05;;;3.50;;
72408;SDS011;60402;48.082;11.628;2023-06-19T08:21:12;6.97;;;3.70;;
72408;SDS011;60402;48.082;11.628;2023-06-19T08:23:58;6.70;;;3.75;;
72408;SDS011;60402;48.082;11.628;2023-06-19T08:26:44;6.72;;;3.58;;
72408;SDS011;60402;48.082;11.628;2023-06-19T08:29:30;9.65;;;3.22;;
72408;SDS011;60402;48.082;11.628;2023-06-19T08:32:15;6.55;;;3.63;;
72408;SDS011;60402;48.082;11.628;2023-06-19T08:35:01;6.47;;;3.45;;
72408;SDS011;60402;48.082;11.628;2023-06-19T08:37:48;6.03;;;3.78;;
72408;SDS011;60402;48.082;11.628;2023-06-19T08:40:34;7.75;;;3.90;;
72408;SDS011;60402;48.082;11.628;2023-06-19T08:43:19;8.30;;;3.70;;
72408;SDS011;60402;48.082;11.628;2023-06-19T08:49:03;6.30;;;3.80;;
72408;SDS011;60402;48.082;11.628;2023-06-19T08:51:51;6.13;;;3.80;;
72408;SDS011;60402;48.082;11.628;2023-06-19T08:54:37;6.18;;;4.03;;
72408;SDS011;60402;48.082;11.628;2023-06-19T08:57:32;6.43;;;3.80;;
72408;SDS011;60402;48.082;11.628;2023-06-19T09:00:23;6.20;;;3.50;;
72408;SDS011;60402;48.082;11.628;2023-06-19T09:03:19;7.60;;;3.80;;
72408;SDS011;60402;48.082;11.628;2023-06-19T09:06:09;5.70;;;3.20;;
72408;SDS011;60402;48.082;11.628;2023-06-19T09:08:58;6.78;;;3.40;;
72408;SDS011;60402;48.082;11.628;2023-06-19T09:11:54;6.65;;;3.30;;
72408;SDS011;60402;48.082;11.628;2023-06-19T09:14:43;6.65;;;2.85;;
72408;SDS011;60402;48.082;11.628;2023-06-19T09:17:30;5.30;;;2.70;;
72408;SDS011;60402;48.082;11.628;2023-06-19T09:20:15;6.25;;;3.15;;
72408;SDS011;60402;48.082;11.628;2023-06-19T09:23:13;6.65;;;3.15;;
72408;SDS011;60402;48.082;11.628;2023-06-19T09:25:59;6.13;;;3.00;;
72408;SDS011;60402;48.082;11.628;2023-06-19T09:28:44;4.95;;;2.80;;
72408;SDS011;60402;48.082;11.628;2023-06-19T09:31:33;6.82;;;2.90;;
72408;SDS011;60402;48.082;11.628;2023-06-19T09:34:19;6.55;;;3.10;;
72408;SDS011;60402;48.082;11.628;2023-06-19T09:37:05;6.22;;;3.00;;
72408;SDS011;60402;48.082;11.628;2023-06-19T09:39:52;6.57;;;2.80;;
72408;SDS011;60402;48.082;11.628;2023-06-19T09:42:43;5.40;;;3.13;;
72408;SDS011;60402;48.082;11.628;2023-06-19T09:45:29;6.25;;;3.00;;
72408;SDS011;60402;48.082;11.628;2023-06-19T09:54:03;4.82;;;2.50;;
72408;SDS011;60402;48.082;11.628;2023-06-19T09:56:52;4.40;;;2.78;;
72408;SDS011;60402;48.082;11.628;2023-06-19T09:59:41;4.55;;;2.60;;
72408;SDS011;60402;48.082;11.628;2023-06-19T10:02:28;4.63;;;2.55;;
72408;SDS011;60402;48.082;11.628;2023-06-19T10:05:14;8.43;;;3.53;;
72408;SDS011;60402;48.082;11.628;2023-06-19T10:08:01;5.18;;;2.80;;
72408;SDS011;60402;48.082;11.628;2023-06-19T10:10:48;6.85;;;2.95;;
72408;SDS011;60402;48.082;11.628;2023-06-19T10:13:35;5.63;;;3.20;;
72408;SDS011;60402;48.082;11.628;2023-06-19T10:16:25;5.82;;;3.33;;
72408;SDS011;60402;48.082;11.628;2023-06-19T10:19:13;8.63;;;3.85;;
72408;SDS011;60402;48.082;11.628;2023-06-19T10:21:59;7.68;;;3.58;;
72408;SDS011;60402;48.082;11.628;2023-06-19T10:24:49;9.07;;;3.47;;
72408;SDS011;60402;48.082;11.628;2023-06-19T10:27:37;5.90;;;3.70;;
72408;SDS011;60402;48.082;11.628;2023-06-19T10:30:23;7.38;;;3.78;;
72408;SDS011;60402;48.082;11.628;2023-06-19T10:33:09;6.88;;;3.60;;
72408;SDS011;60402;48.082;11.628;2023-06-19T10:35:55;6.97;;;3.28;;
72408;SDS011;60402;48.082;11.628;2023-06-19T10:38:40;7.68;;;3.78;;
72408;SDS011;60402;48.082;11.628;2023-06-19T10:41:26;8.43;;;4.38;;
72408;SDS011;60402;48.082;11.628;2023-06-19T10:44:12;7.97;;;3.97;;
72408;SDS011;60402;48.082;11.628;2023-06-19T10:46:58;6.55;;;4.15;;
72408;SDS011;60402;48.082;11.628;2023-06-19T10:49:44;6.70;;;4.30;;
72408;SDS011;60402;48.082;11.628;2023-06-19T10:52:30;6.00;;;3.65;;
72408;SDS011;60402;48.082;11.628;2023-06-19T10:55:16;8.02;;;4.32;;
72408;SDS011;60402;48.082;11.628;2023-06-19T10:58:01;8.02;;;3.88;;
72408;SDS011;60402;48.082;11.628;2023-06-19T11:00:47;7.00;;;4.50;;
72408;SDS011;60402;48.082;11.628;2023-06-19T11:03:33;6.80;;;4.20;;
72408;SDS011;60402;48.082;11.628;2023-06-19T11:06:20;7.95;;;4.35;;
72408;SDS011;60402;48.082;11.628;2023-06-19T11:09:06;7.50;;;4.85;;
72408;SDS011;60402;48.082;11.628;2023-06-19T11:11:53;6.82;;;4.40;;
72408;SDS011;60402;48.082;11.628;2023-06-19T11:14:39;7.65;;;4.68;;
72408;SDS011;60402;48.082;11.628;2023-06-19T11:17:27;6.95;;;4.20;;
72408;SDS011;60402;48.082;11.628;2023-06-19T11:20:13;9.63;;;5.00;;
72408;SDS011;60402;48.082;11.628;2023-06-19T11:23:00;8.20;;;4.35;;
72408;SDS011;60402;48.082;11.628;2023-06-19T11:25:46;7.75;;;4.55;;
72408;SDS011;60402;48.082;11.628;2023-06-19T11:28:32;8.40;;;4.47;;
72408;SDS011;60402;48.082;11.628;2023-06-19T11:31:18;7.43;;;4.38;;
72408;SDS011;60402;48.082;11.628;2023-06-19T11:34:11;7.05;;;4.18;;
72408;SDS011;60402;48.082;11.628;2023-06-19T11:36:56;8.50;;;4.43;;
72408;SDS011;60402;48.082;11.628;2023-06-19T11:39:45;6.28;;;3.67;;
72408;SDS011;60402;48.082;11.628;2023-06-19T11:42:32;7.20;;;3.92;;
72408;SDS011;60402;48.082;11.628;2023-06-19T11:45:28;5.65;;;3.03;;
72408;SDS011;60402;48.082;11.628;2023-06-19T11:48:21;6.45;;;3.00;;
72408;SDS011;60402;48.082;11.628;2023-06-19T11:51:07;6.13;;;3.05;;
72408;SDS011;60402;48.082;11.628;2023-06-19T11:53:53;6.28;;;3.28;;
72408;SDS011;60402;48.082;11.628;2023-06-19T11:56:39;5.80;;;2.90;;
72408;SDS011;60402;48.082;11.628;2023-06-19T11:59:25;6.25;;;3.10;;
72408;SDS011;60402;48.082;11.628;2023-06-19T12:02:10;5.75;;;3.20;;
72408;SDS011;60402;48.082;11.628;2023-06-19T12:04:56;6.15;;;3.05;;
72408;SDS011;60402;48.082;11.628;2023-06-19T12:07:42;5.35;;;2.92;;
72408;SDS011;60402;48.082;11.628;2023-06-19T12:10:28;8.02;;;3.05;;
72408;SDS011;60402;48.082;11.628;2023-06-19T12:13:14;6.68;;;3.47;;
72408;SDS011;60402;48.082;11.628;2023-06-19T12:15:59;5.82;;;2.97;;
72408;SDS011;60402;48.082;11.628;2023-06-19T12:18:45;7.57;;;3.17;;
72408;SDS011;60402;48.082;11.628;2023-06-19T12:21:30;8.15;;;3.33;;
72408;SDS011;60402;48.082;11.628;2023-06-19T12:24:16;5.50;;;3.20;;
72408;SDS011;60402;48.082;11.628;2023-06-19T12:27:02;5.32;;;3.15;;
72408;SDS011;60402;48.082;11.628;2023-06-19T12:29:48;6.28;;;3.25;;
72408;SDS011;60402;48.082;11.628;2023-06-19T12:32:33;6.50;;;3.10;;
72408;SDS011;60402;48.082;11.628;2023-06-19T12:35:19;5.13;;;3.10;;
72408;SDS011;60402;48.082;11.628;2023-06-19T12:38:06;6.88;;;3.63;;
72408;SDS011;60402;48.082;11.628;2023-06-19T12:40:52;6.68;;;3.25;;
72408;SDS011;60402;48.082;11.628;2023-06-19T12:43:37;5.93;;;3.53;;
72408;SDS011;60402;48.082;11.628;2023-06-19T12:46:23;7.07;;;3.33;;
72408;SDS011;60402;48.082;11.628;2023-06-19T12:49:09;5.65;;;3.42;;
72408;SDS011;60402;48.082;11.628;2023-06-19T12:51:55;6.25;;;3.20;;
72408;SDS011;60402;48.082;11.628;2023-06-19T12:54:40;7.15;;;2.97;;
72408;SDS011;60402;48.082;11.628;2023-06-19T12:57:27;6.07;;;2.80;;
72408;SDS011;60402;48.082;11.628;2023-06-19T13:00:13;5.00;;;3.10;;
72408;SDS011;60402;48.082;11.628;2023-06-19T13:02:59;5.72;;;3.03;;
72408;SDS011;60402;48.082;11.628;2023-06-19T13:05:45;5.15;;;2.80;;
72408;SDS011;60402;48.082;11.628;2023-06-19T13:08:32;6.15;;;3.40;;
72408;SDS011;60402;48.082;11.628;2023-06-19T13:11:17;5.85;;;3.20;;
72408;SDS011;60402;48.082;11.628;2023-06-19T13:14:04;6.82;;;3.45;;
72408;SDS011;60402;48.082;11.628;2023-06-19T13:16:49;5.65;;;3.30;;
72408;SDS011;60402;48.082;11.628;2023-06-19T13:19:35;6.63;;;3.03;;
72408;SDS011;60402;48.082;11.628;2023-06-19T13:22:21;5.55;;;2.97;;
72408;SDS011;60402;48.082;11.628;2023-06-19T13:25:06;6.10;;;3.10;;
72408;SDS011;60402;48.082;11.628;2023-06-19T13:27:53;6.05;;;3.20;;
72408;SDS011;60402;48.082;11.628;2023-06-19T13:30:38;6.43;;;3.75;;
72408;SDS011;60402;48.082;11.628;2023-06-19T13:33:24;6.63;;;3.40;;
72408;SDS011;60402;48.082;11.628;2023-06-19T13:36:10;6.85;;;3.40;;
72408;SDS011;60402;48.082;11.628;2023-06-19T13:38:56;6.20;;;3.13;;
72408;SDS011;60402;48.082;11.628;2023-06-19T13:41:42;5.13;;;3.00;;
72408;SDS011;60402;48.082;11.628;2023-06-19T13:44:27;4.97;;;2.90;;
72408;SDS011;60402;48.082;11.628;2023-06-19T13:47:13;7.63;;;3.10;;
72408;SDS011;60402;48.082;11.628;2023-06-19T13:49:59;6.88;;;3.60;;
72408;SDS011;60402;48.082;11.628;2023-06-19T13:52:45;5.55;;;3.10;;
72408;SDS011;60402;48.082;11.628;2023-06-19T13:55:31;6.35;;;3.35;;
72408;SDS011;60402;48.082;11.628;2023-06-19T13:58:17;7.85;;;3.40;;
72408;SDS011;60402;48.082;11.628;2023-06-19T14:01:02;6.80;;;3.38;;
72408;SDS011;60402;48.082;11.628;2023-06-19T14:03:48;6.28;;;3.30;;
72408;SDS011;60402;48.082;11.628;2023-06-19T14:06:34;6.03;;;3.70;;
72408;SDS011;60402;48.082;11.628;2023-06-19T14:09:20;6.25;;;3.38;;
72408;SDS011;60402;48.082;11.628;2023-06-19T14:12:06;6.63;;;3.10;;
72408;SDS011;60402;48.082;11.628;2023-06-19T14:14:52;6.50;;;2.80;;
72408;SDS011;60402;48.082;11.628;2023-06-19T14:17:38;5.40;;;3.35;;
72408;SDS011;60402;48.082;11.628;2023-06-19T14:20:23;5.18;;;3.17;;
72408;SDS011;60402;48.082;11.628;2023-06-19T14:23:09;5.15;;;2.97;;
72408;SDS011;60402;48.082;11.628;2023-06-19T14:25:55;6.82;;;4.10;;
72408;SDS011;60402;48.082;11.628;2023-06-19T14:28:41;5.30;;;2.85;;
72408;SDS011;60402;48.082;11.628;2023-06-19T14:31:26;5.55;;;3.40;;
72408;SDS011;60402;48.082;11.628;2023-06-19T14:34:12;7.20;;;3.67;;
72408;SDS011;60402;48.082;11.628;2023-06-19T14:36:58;6.13;;;3.20;;
72408;SDS011;60402;48.082;11.628;2023-06-19T14:39:43;6.07;;;3.20;;
72408;SDS011;60402;48.082;11.628;2023-06-19T14:42:29;5.63;;;3.13;;
72408;SDS011;60402;48.082;11.628;2023-06-19T14:45:14;4.90;;;3.22;;
72408;SDS011;60402;48.082;11.628;2023-06-19T14:48:00;6.30;;;3.35;;
72408;SDS011;60402;48.082;11.628;2023-06-19T14:50:46;7.55;;;3.47;;
72408;SDS011;60402;48.082;11.628;2023-06-19T14:53:32;5.95;;;3.33;;
72408;SDS011;60402;48.082;11.628;2023-06-19T14:56:17;6.53;;;3.63;;
72408;SDS011;60402;48.082;11.628;2023-06-19T14:59:03;5.60;;;3.17;;
72408;SDS011;60402;48.082;11.628;2023-06-19T15:01:49;5.13;;;3.28;;
72408;SDS011;60402;48.082;11.628;2023-06-19T15:04:34;7.47;;;3.75;;
72408;SDS011;60402;48.082;11.628;2023-06-19T15:07:20;6.47;;;3.58;;
72408;SDS011;60402;48.082;11.628;2023-06-19T15:10:07;6.03;;;3.28;;
72408;SDS011;60402;48.082;11.628;2023-06-19T15:12:53;6.93;;;3.00;;
72408;SDS011;60402;48.082;11.628;2023-06-19T15:15:39;5.38;;;3.10;;
72408;SDS011;60402;48.082;11.628;2023-06-19T15:18:25;5.88;;;3.17;;
72408;SDS011;60402;48.082;11.628;2023-06-19T15:21:11;6.53;;;3.33;;
72408;SDS011;60402;48.082;11.628;2023-06-19T15:23:57;6.55;;;3.20;;
72408;SDS011;60402;48.082;11.628;2023-06-19T15:26:42;6.72;;;3.13;;
72408;SDS011;60402;48.082;11.628;2023-06-19T15:29:28;6.80;;;3.08;;
72408;SDS011;60402;48.082;11.628;2023-06-19T15:32:14;6.30;;;3.38;;
72408;SDS011;60402;48.082;11.628;2023-06-19T15:35:00;5.25;;;3.10;;
72408;SDS011;60402;48.082;11.628;2023-06-19T15:37:45;6.28;;;3.40;;
72408;SDS011;60402;48.082;11.628;2023-06-19T15:40:31;5.40;;;2.97;;
72408;SDS011;60402;48.082;11.628;2023-06-19T15:43:17;5.65;;;3.08;;
72408;SDS011;60402;48.082;11.628;2023-06-19T15:46:02;6.32;;;3.45;;
72408;SDS011;60402;48.082;11.628;2023-06-19T15:48:52;6.93;;;3.47;;
72408;SDS011;60402;48.082;11.628;2023-06-19T15:51:38;6.80;;;3.30;;
72408;SDS011;60402;48.082;11.628;2023-06-19T15:54:23;6.45;;;3.40;;
72408;SDS011;60402;48.082;11.628;2023-06-19T15:57:09;5.28;;;3.15;;
72408;SDS011;60402;48.082;11.628;2023-06-19T15:59:57;5.80;;;3.13;;
72408;SDS011;60402;48.082;11.628;2023-06-19T16:02:43;5.95;;;3.47;;
72408;SDS011;60402;48.082;11.628;2023-06-19T16:05:31;5.88;;;3.28;;
72408;SDS011;60402;48.082;11.628;2023-06-19T16:08:18;7.57;;;3.53;;
72408;SDS011;60402;48.082;11.628;2023-06-19T16:11:04;7.68;;;3.60;;
72408;SDS011;60402;48.082;11.628;2023-06-19T16:13:50;8.43;;;3.50;;
72408;SDS011;60402;48.082;11.628;2023-06-19T16:16:35;6.00;;;3.70;;
72408;SDS011;60402;48.082;11.628;2023-06-19T16:19:22;6.00;;;3.30;;
72408;SDS011;60402;48.082;11.628;2023-06-19T16:22:07;6.07;;;3.45;;
72408;SDS011;60402;48.082;11.628;2023-06-19T16:24:53;7.22;;;3.70;;
72408;SDS011;60402;48.082;11.628;2023-06-19T16:27:39;5.82;;;3.40;;
72408;SDS011;60402;48.082;11.628;2023-06-19T16:30:24;7.40;;;3.50;;